sensor_id;sensor_type;location;lat;lon;timestamp;pressure;altitude;pressure_sealevel;temperature;humidity
37304;BME280;23188;51.188;16.374;2023-04-15T00:02:31;98902.10;;;11.41;100.00
37304;BME280;23188;51.188;16.374;2023-04-15T00:06:36;98893.45;;;11.47;100.00
37304;BME280;23188;51.188;16.374;2023-04-15T00:10:39;98893.23;;;11.53;100.00
37304;BME280;23188;51.188;16.374;2023-04-15T00:14:46;98892.52;;;11.56;100.00
37304;BME280;23188;51.188;16.374;2023-04-15T00:18:49;98890.76;;;11.56;100.00
37304;BME280;23188;51.188;16.374;2023-04-15T00:22:53;98884.09;;;11.58;100.00
37304;BME280;23188;51.188;16.374;2023-04-15T00:26:57;98884.53;;;11.63;100.00
37304;BME280;23188;51.188;16.374;2023-04-15T00:31:00;98883.13;;;11.64;100.00
37304;BME280;23188;51.188;16.374;2023-04-15T00:35:04;98880.23;;;11.66;100.00
37304;BME280;23188;51.188;16.374;2023-04-15T00:39:08;98876.11;;;11.70;100.00
37304;BME280;23188;51.188;16.374;2023-04-15T00:43:11;98872.54;;;11.70;100.00
37304;BME280;23188;51.188;16.374;2023-04-15T00:47:15;98873.77;;;11.74;100.00
37304;BME280;23188;51.188;16.374;2023-04-15T00:51:19;98872.70;;;11.72;100.00
37304;BME280;23188;51.188;16.374;2023-04-15T00:55:22;98869.31;;;11.70;100.00
37304;BME280;23188;51.188;16.374;2023-04-15T00:59:26;98870.54;;;11.74;100.00
37304;BME280;23188;51.188;16.374;2023-04-15T01:03:29;98872.17;;;11.74;100.00
37304;BME280;23188;51.188;16.374;2023-04-15T01:07:33;98870.25;;;11.73;100.00
37304;BME280;23188;51.188;16.374;2023-04-15T01:11:37;98869.27;;;11.72;100.00
37304;BME280;23188;51.188;16.374;2023-04-15T01:15:41;98867.34;;;11.72;100.00
37304;BME280;23188;51.188;16.374;2023-04-15T01:19:44;98865.22;;;11.72;100.00
37304;BME280;23188;51.188;16.374;2023-04-15T01:23:49;98866.91;;;11.70;100.00
37304;BME280;23188;51.188;16.374;2023-04-15T01:27:54;98865.38;;;11.71;100.00
37304;BME280;23188;51.188;16.374;2023-04-15T01:31:57;98868.98;;;11.75;100.00
37304;BME280;23188;51.188;16.374;2023-04-15T01:36:01;98862.00;;;11.77;100.00
37304;BME280;23188;51.188;16.374;2023-04-15T01:40:06;98865.94;;;11.72;100.00
37304;BME280;23188;51.188;16.374;2023-04-15T01:44:09;98862.80;;;11.75;100.00
37304;BME280;23188;51.188;16.374;2023-04-15T01:48:13;98862.77;;;11.77;100.00
37304;BME280;23188;51.188;16.374;2023-04-15T01:52:17;98856.11;;;11.79;100.00
37304;BME280;23188;51.188;16.374;2023-04-15T01:56:20;98864.67;;;11.79;100.00
37304;BME280;23188;51.188;16.374;2023-04-15T02:00:23;98866.51;;;11.80;100.00
37304;BME280;23188;51.188;16.374;2023-04-15T02:04:27;98866.11;;;11.74;100.00
37304;BME280;23188;51.188;16.374;2023-04-15T02:08:30;98866.02;;;11.70;100.00
37304;BME280;23188;51.188;16.374;2023-04-15T02:12:34;98870.81;;;11.70;100.00
37304;BME280;23188;51.188;16.374;2023-04-15T02:16:38;98871.34;;;11.71;100.00
37304;BME280;23188;51.188;16.374;2023-04-15T02:20:41;98872.73;;;11.73;100.00
37304;BME280;23188;51.188;16.374;2023-04-15T02:24:48;98873.20;;;11.74;100.00
37304;BME280;23188;51.188;16.374;2023-04-15T02:28:52;98864.67;;;11.75;100.00
37304;BME280;23188;51.188;16.374;2023-04-15T02:32:55;98865.94;;;11.79;100.00
37304;BME280;23188;51.188;16.374;2023-04-15T02:36:59;98867.09;;;11.86;100.00
37304;BME280;23188;51.188;16.374;2023-04-15T02:41:02;98864.62;;;11.87;100.00
37304;BME280;23188;51.188;16.374;2023-04-15T02:45:07;98862.83;;;11.86;100.00
37304;BME280;23188;51.188;16.374;2023-04-15T02:49:10;98867.26;;;11.78;100.00
37304;BME280;23188;51.188;16.374;2023-04-15T02:53:14;98871.11;;;11.72;100.00
37304;BME280;23188;51.188;16.374;2023-04-15T02:57:17;98876.90;;;11.69;100.00
37304;BME280;23188;51.188;16.374;2023-04-15T03:01:21;98874.96;;;11.74;100.00
37304;BME280;23188;51.188;16.374;2023-04-15T03:05:24;98872.39;;;11.75;100.00
37304;BME280;23188;51.188;16.374;2023-04-15T03:09:28;98879.06;;;11.74;100.00
37304;BME280;23188;51.188;16.374;2023-04-15T03:13:31;98873.81;;;11.70;100.00
37304;BME280;23188;51.188;16.374;2023-04-15T03:17:34;98876.30;;;11.68;100.00
37304;BME280;23188;51.188;16.374;2023-04-15T03:21:38;98877.10;;;11.66;100.00
37304;BME280;23188;51.188;16.374;2023-04-15T03:25:41;98882.45;;;11.63;100.00
37304;BME280;23188;51.188;16.374;2023-04-15T03:29:51;98889.75;;;11.65;100.00
37304;BME280;23188;51.188;16.374;2023-04-15T03:48:29;98907.77;;;11.68;100.00
37304;BME280;23188;51.188;16.374;2023-04-15T03:57:49;98911.86;;;11.69;100.00
37304;BME280;23188;51.188;16.374;2023-04-15T04:10:47;98942.01;;;11.63;100.00
37304;BME280;23188;51.188;16.374;2023-04-15T04:15:11;98946.21;;;11.54;100.00
37304;BME280;23188;51.188;16.374;2023-04-15T04:23:47;98960.88;;;11.24;100.00
37304;BME280;23188;51.188;16.374;2023-04-15T04:27:56;98967.06;;;11.15;100.00
37304;BME280;23188;51.188;16.374;2023-04-15T05:25:58;99035.54;;;10.37;100.00
37304;BME280;23188;51.188;16.374;2023-04-15T06:10:23;99063.42;;;10.81;97.00
37304;BME280;23188;51.188;16.374;2023-04-15T06:19:27;99087.54;;;10.74;97.50
37304;BME280;23188;51.188;16.374;2023-04-15T06:23:36;99097.73;;;10.83;98.34
37304;BME280;23188;51.188;16.374;2023-04-15T06:27:41;99103.58;;;11.04;99.62
37304;BME280;23188;51.188;16.374;2023-04-15T06:31:47;99105.39;;;11.58;96.11
37304;BME280;23188;51.188;16.374;2023-04-15T06:35:55;99106.47;;;11.92;89.47
37304;BME280;23188;51.188;16.374;2023-04-15T06:40:01;99112.19;;;12.05;87.44
37304;BME280;23188;51.188;16.374;2023-04-15T06:44:05;99120.33;;;12.20;88.95
37304;BME280;23188;51.188;16.374;2023-04-15T06:48:11;99125.02;;;12.46;88.89
37304;BME280;23188;51.188;16.374;2023-04-15T06:52:15;99131.17;;;12.67;86.99
37304;BME280;23188;51.188;16.374;2023-04-15T07:09:21;99149.05;;;12.45;83.43
37304;BME280;23188;51.188;16.374;2023-04-15T07:33:16;99166.23;;;12.06;85.69
37304;BME280;23188;51.188;16.374;2023-04-15T07:37:21;99167.23;;;12.22;84.98
37304;BME280;23188;51.188;16.374;2023-04-15T07:41:48;99174.34;;;12.37;84.91
37304;BME280;23188;51.188;16.374;2023-04-15T07:45:52;99181.54;;;12.35;81.91
37304;BME280;23188;51.188;16.374;2023-04-15T07:54:35;99190.81;;;12.16;80.15
37304;BME280;23188;51.188;16.374;2023-04-15T08:35:25;99206.15;;;13.19;77.16
37304;BME280;23188;51.188;16.374;2023-04-15T08:44:04;99214.44;;;13.34;75.21
37304;BME280;23188;51.188;16.374;2023-04-15T08:48:08;99218.30;;;13.38;73.98
37304;BME280;23188;51.188;16.374;2023-04-15T08:52:15;99225.84;;;13.26;74.56
37304;BME280;23188;51.188;16.374;2023-04-15T08:56:24;99230.02;;;13.20;73.13
37304;BME280;23188;51.188;16.374;2023-04-15T09:00:31;99233.08;;;13.36;74.16
37304;BME280;23188;51.188;16.374;2023-04-15T09:04:35;99229.44;;;13.47;75.28
37304;BME280;23188;51.188;16.374;2023-04-15T09:08:39;99237.20;;;13.51;73.06
37304;BME280;23188;51.188;16.374;2023-04-15T09:12:44;99241.55;;;13.60;73.21
37304;BME280;23188;51.188;16.374;2023-04-15T09:17:01;99241.70;;;13.67;73.06
37304;BME280;23188;51.188;16.374;2023-04-15T09:21:07;99248.48;;;13.60;68.86
37304;BME280;23188;51.188;16.374;2023-04-15T09:29:29;99261.58;;;13.41;73.53
37304;BME280;23188;51.188;16.374;2023-04-15T09:33:32;99250.86;;;13.66;74.42
37304;BME280;23188;51.188;16.374;2023-04-15T09:37:35;99255.12;;;14.14;72.35
37304;BME280;23188;51.188;16.374;2023-04-15T09:41:39;99253.20;;;14.53;69.81
37304;BME280;23188;51.188;16.374;2023-04-15T09:45:51;99255.65;;;14.54;69.31
37304;BME280;23188;51.188;16.374;2023-04-15T09:50:05;99252.95;;;14.53;69.13
37304;BME280;23188;51.188;16.374;2023-04-15T09:54:12;99261.08;;;14.61;68.81
37304;BME280;23188;51.188;16.374;2023-04-15T09:58:22;99260.91;;;14.63;69.20
37304;BME280;23188;51.188;16.374;2023-04-15T10:02:27;99266.14;;;14.61;67.01
37304;BME280;23188;51.188;16.374;2023-04-15T10:06:33;99267.46;;;14.61;68.53
37304;BME280;23188;51.188;16.374;2023-04-15T10:10:46;99267.39;;;14.68;66.38
37304;BME280;23188;51.188;16.374;2023-04-15T10:14:58;99268.98;;;14.81;70.41
37304;BME280;23188;51.188;16.374;2023-04-15T10:19:02;99271.66;;;15.06;68.52
37304;BME280;23188;51.188;16.374;2023-04-15T10:23:08;99276.87;;;15.07;65.88
37304;BME280;23188;51.188;16.374;2023-04-15T10:27:16;99278.98;;;15.05;64.02
37304;BME280;23188;51.188;16.374;2023-04-15T10:31:20;99281.59;;;15.08;67.97
37304;BME280;23188;51.188;16.374;2023-04-15T10:35:24;99280.63;;;15.19;66.51
37304;BME280;23188;51.188;16.374;2023-04-15T10:39:44;99282.46;;;15.20;66.31
37304;BME280;23188;51.188;16.374;2023-04-15T10:43:52;99276.36;;;15.01;64.51
37304;BME280;23188;51.188;16.374;2023-04-15T10:47:56;99273.75;;;14.82;66.91
37304;BME280;23188;51.188;16.374;2023-04-15T10:52:00;99275.67;;;14.97;66.26
37304;BME280;23188;51.188;16.374;2023-04-15T10:56:03;99276.70;;;15.02;65.44
37304;BME280;23188;51.188;16.374;2023-04-15T11:04:10;99275.15;;;14.93;68.03
37304;BME280;23188;51.188;16.374;2023-04-15T11:08:14;99278.57;;;15.09;68.19
37304;BME280;23188;51.188;16.374;2023-04-15T11:12:18;99284.65;;;15.31;66.64
37304;BME280;23188;51.188;16.374;2023-04-15T11:16:21;99290.80;;;15.53;66.37
37304;BME280;23188;51.188;16.374;2023-04-15T11:20:24;99293.00;;;15.62;63.95
37304;BME280;23188;51.188;16.374;2023-04-15T11:29:16;99300.82;;;15.73;61.42
37304;BME280;23188;51.188;16.374;2023-04-15T11:33:21;99305.25;;;15.69;62.07
37304;BME280;23188;51.188;16.374;2023-04-15T11:37:29;99307.63;;;15.45;61.09
37304;BME280;23188;51.188;16.374;2023-04-15T11:41:34;99309.46;;;15.45;61.86
37304;BME280;23188;51.188;16.374;2023-04-15T11:45:58;99310.20;;;15.46;62.84
37304;BME280;23188;51.188;16.374;2023-04-15T11:50:21;99312.40;;;15.20;64.75
37304;BME280;23188;51.188;16.374;2023-04-15T11:54:25;99319.13;;;15.11;64.25
37304;BME280;23188;51.188;16.374;2023-04-15T11:58:29;99322.48;;;15.13;64.23
37304;BME280;23188;51.188;16.374;2023-04-15T12:02:35;99329.74;;;15.02;64.93
37304;BME280;23188;51.188;16.374;2023-04-15T12:06:39;99334.76;;;14.93;65.65
37304;BME280;23188;51.188;16.374;2023-04-15T12:10:43;99334.86;;;14.94;63.54
37304;BME280;23188;51.188;16.374;2023-04-15T12:14:46;99337.73;;;14.86;65.29
37304;BME280;23188;51.188;16.374;2023-04-15T12:18:53;99337.66;;;14.89;64.58
37304;BME280;23188;51.188;16.374;2023-04-15T12:23:06;99346.05;;;14.89;64.15
37304;BME280;23188;51.188;16.374;2023-04-15T12:27:11;99353.67;;;14.82;63.61
37304;BME280;23188;51.188;16.374;2023-04-15T12:31:14;99355.06;;;14.68;63.36
37304;BME280;23188;51.188;16.374;2023-04-15T12:35:17;99356.75;;;14.72;63.82
37304;BME280;23188;51.188;16.374;2023-04-15T12:39:28;99365.14;;;14.73;62.58
37304;BME280;23188;51.188;16.374;2023-04-15T12:43:32;99365.84;;;14.81;63.95
37304;BME280;23188;51.188;16.374;2023-04-15T12:47:35;99367.23;;;14.81;62.58
37304;BME280;23188;51.188;16.374;2023-04-15T12:51:39;99371.78;;;14.90;62.73
37304;BME280;23188;51.188;16.374;2023-04-15T12:55:42;99371.80;;;15.09;62.54
37304;BME280;23188;51.188;16.374;2023-04-15T12:59:46;99374.15;;;15.23;61.96
37304;BME280;23188;51.188;16.374;2023-04-15T13:04:10;99376.67;;;15.18;61.68
37304;BME280;23188;51.188;16.374;2023-04-15T13:08:13;99375.59;;;15.18;61.46
37304;BME280;23188;51.188;16.374;2023-04-15T13:12:17;99380.71;;;15.14;62.21
37304;BME280;23188;51.188;16.374;2023-04-15T13:16:22;99379.71;;;15.18;62.33
37304;BME280;23188;51.188;16.374;2023-04-15T13:20:25;99381.84;;;15.29;63.09
37304;BME280;23188;51.188;16.374;2023-04-15T13:24:29;99385.25;;;15.40;61.73
37304;BME280;23188;51.188;16.374;2023-04-15T13:28:33;99389.16;;;15.48;62.75
37304;BME280;23188;51.188;16.374;2023-04-15T13:32:36;99393.60;;;15.56;63.00
37304;BME280;23188;51.188;16.374;2023-04-15T13:36:40;99400.67;;;15.66;63.10
37304;BME280;23188;51.188;16.374;2023-04-15T13:45:06;99405.83;;;15.94;59.74
37304;BME280;23188;51.188;16.374;2023-04-15T13:49:10;99406.32;;;15.96;61.89
37304;BME280;23188;51.188;16.374;2023-04-15T13:53:54;99407.07;;;15.97;61.80
37304;BME280;23188;51.188;16.374;2023-04-15T13:57:58;99405.33;;;16.01;61.86
37304;BME280;23188;51.188;16.374;2023-04-15T14:02:01;99406.58;;;16.03;60.57
37304;BME280;23188;51.188;16.374;2023-04-15T14:06:06;99401.20;;;16.01;62.29
37304;BME280;23188;51.188;16.374;2023-04-15T14:10:11;99400.05;;;15.99;63.86
37304;BME280;23188;51.188;16.374;2023-04-15T14:14:17;99401.86;;;15.89;60.66
37304;BME280;23188;51.188;16.374;2023-04-15T14:18:20;99403.30;;;15.91;60.79
37304;BME280;23188;51.188;16.374;2023-04-15T14:22:23;99406.23;;;15.90;61.65
37304;BME280;23188;51.188;16.374;2023-04-15T14:26:26;99411.13;;;15.83;58.54
37304;BME280;23188;51.188;16.374;2023-04-15T14:30:29;99412.67;;;15.82;56.51
37304;BME280;23188;51.188;16.374;2023-04-15T14:34:32;99424.02;;;15.88;57.03
37304;BME280;23188;51.188;16.374;2023-04-15T14:38:36;99426.53;;;15.96;57.21
37304;BME280;23188;51.188;16.374;2023-04-15T14:42:40;99428.95;;;16.05;56.65
37304;BME280;23188;51.188;16.374;2023-04-15T14:46:43;99432.57;;;16.16;55.70
37304;BME280;23188;51.188;16.374;2023-04-15T14:50:46;99440.63;;;16.24;55.33
37304;BME280;23188;51.188;16.374;2023-04-15T14:54:49;99442.23;;;16.19;59.40
37304;BME280;23188;51.188;16.374;2023-04-15T14:58:52;99446.13;;;16.28;58.77
37304;BME280;23188;51.188;16.374;2023-04-15T15:02:55;99444.95;;;16.47;57.01
37304;BME280;23188;51.188;16.374;2023-04-15T15:06:59;99446.67;;;16.65;57.97
37304;BME280;23188;51.188;16.374;2023-04-15T15:11:02;99450.98;;;16.57;57.29
37304;BME280;23188;51.188;16.374;2023-04-15T15:15:06;99454.10;;;16.50;59.33
37304;BME280;23188;51.188;16.374;2023-04-15T15:19:29;99461.94;;;16.64;58.86
37304;BME280;23188;51.188;16.374;2023-04-15T15:23:32;99463.98;;;16.80;56.72
37304;BME280;23188;51.188;16.374;2023-04-15T15:27:35;99472.35;;;16.79;55.11
37304;BME280;23188;51.188;16.374;2023-04-15T15:31:40;99475.06;;;16.78;56.05
37304;BME280;23188;51.188;16.374;2023-04-15T15:35:43;99480.92;;;16.80;58.31
37304;BME280;23188;51.188;16.374;2023-04-15T15:39:47;99482.92;;;16.72;56.50
37304;BME280;23188;51.188;16.374;2023-04-15T15:43:52;99483.87;;;16.69;55.61
37304;BME280;23188;51.188;16.374;2023-04-15T15:47:55;99486.90;;;16.61;55.81
37304;BME280;23188;51.188;16.374;2023-04-15T15:52:00;99488.06;;;16.65;55.71
37304;BME280;23188;51.188;16.374;2023-04-15T15:56:03;99495.77;;;16.76;57.47
37304;BME280;23188;51.188;16.374;2023-04-15T16:00:07;99495.94;;;16.82;56.11
37304;BME280;23188;51.188;16.374;2023-04-15T16:04:14;99499.20;;;16.81;53.96
37304;BME280;23188;51.188;16.374;2023-04-15T16:08:18;99504.64;;;16.85;53.77
37304;BME280;23188;51.188;16.374;2023-04-15T16:12:22;99504.09;;;16.77;54.33
37304;BME280;23188;51.188;16.374;2023-04-15T16:16:26;99507.09;;;16.78;55.38
37304;BME280;23188;51.188;16.374;2023-04-15T16:20:30;99504.85;;;16.83;55.36
37304;BME280;23188;51.188;16.374;2023-04-15T16:24:33;99510.88;;;16.87;57.09
37304;BME280;23188;51.188;16.374;2023-04-15T16:28:37;99515.70;;;16.92;58.57
37304;BME280;23188;51.188;16.374;2023-04-15T16:32:40;99515.98;;;16.86;56.33
37304;BME280;23188;51.188;16.374;2023-04-15T16:36:44;99516.14;;;16.88;55.94
37304;BME280;23188;51.188;16.374;2023-04-15T16:40:48;99519.10;;;16.69;56.87
37304;BME280;23188;51.188;16.374;2023-04-15T16:44:51;99515.44;;;16.41;56.39
37304;BME280;23188;51.188;16.374;2023-04-15T16:48:54;99523.05;;;16.24;58.36
37304;BME280;23188;51.188;16.374;2023-04-15T16:52:58;99523.52;;;16.12;60.10
37304;BME280;23188;51.188;16.374;2023-04-15T16:57:01;99535.59;;;16.03;59.39
37304;BME280;23188;51.188;16.374;2023-04-15T17:01:05;99541.03;;;15.93;59.36
37304;BME280;23188;51.188;16.374;2023-04-15T17:05:08;99540.56;;;15.83;60.30
37304;BME280;23188;51.188;16.374;2023-04-15T17:09:11;99544.11;;;15.71;60.00
37304;BME280;23188;51.188;16.374;2023-04-15T17:13:14;99552.04;;;15.56;58.69
37304;BME280;23188;51.188;16.374;2023-04-15T17:17:17;99558.86;;;15.39;59.16
37304;BME280;23188;51.188;16.374;2023-04-15T17:21:22;99561.13;;;15.20;60.17
37304;BME280;23188;51.188;16.374;2023-04-15T17:25:25;99562.14;;;15.00;63.20
37304;BME280;23188;51.188;16.374;2023-04-15T17:29:28;99557.33;;;14.54;68.22
37304;BME280;23188;51.188;16.374;2023-04-15T17:33:32;99568.56;;;14.23;69.30
37304;BME280;23188;51.188;16.374;2023-04-15T17:37:55;99584.60;;;13.91;69.09
37304;BME280;23188;51.188;16.374;2023-04-15T17:41:58;99595.44;;;13.64;68.65
37304;BME280;23188;51.188;16.374;2023-04-15T17:46:01;99601.86;;;13.40;67.19
37304;BME280;23188;51.188;16.374;2023-04-15T17:50:05;99609.55;;;13.22;67.10
37304;BME280;23188;51.188;16.374;2023-04-15T17:54:08;99616.11;;;13.07;67.21
37304;BME280;23188;51.188;16.374;2023-04-15T17:58:12;99623.69;;;12.91;67.76
37304;BME280;23188;51.188;16.374;2023-04-15T18:02:15;99630.77;;;12.76;68.73
37304;BME280;23188;51.188;16.374;2023-04-15T18:06:19;99636.40;;;12.61;69.38
37304;BME280;23188;51.188;16.374;2023-04-15T18:10:23;99646.62;;;12.46;69.36
37304;BME280;23188;51.188;16.374;2023-04-15T18:14:26;99652.50;;;12.36;69.30
37304;BME280;23188;51.188;16.374;2023-04-15T18:18:37;99657.66;;;12.27;69.52
37304;BME280;23188;51.188;16.374;2023-04-15T18:22:41;99655.67;;;12.19;70.22
37304;BME280;23188;51.188;16.374;2023-04-15T18:26:45;99665.30;;;12.11;70.46
37304;BME280;23188;51.188;16.374;2023-04-15T18:30:51;99680.08;;;12.05;70.82
37304;BME280;23188;51.188;16.374;2023-04-15T18:34:54;99694.26;;;11.98;71.10
37304;BME280;23188;51.188;16.374;2023-04-15T18:38:58;99702.54;;;11.93;71.28
37304;BME280;23188;51.188;16.374;2023-04-15T18:43:01;99702.86;;;11.90;71.10
37304;BME280;23188;51.188;16.374;2023-04-15T18:47:05;99708.88;;;11.89;70.91
37304;BME280;23188;51.188;16.374;2023-04-15T18:51:08;99711.45;;;11.87;70.76
37304;BME280;23188;51.188;16.374;2023-04-15T18:55:12;99718.24;;;11.89;70.76
37304;BME280;23188;51.188;16.374;2023-04-15T18:59:19;99725.98;;;11.90;70.89
37304;BME280;23188;51.188;16.374;2023-04-15T19:03:32;99726.42;;;11.85;74.72
37304;BME280;23188;51.188;16.374;2023-04-15T19:07:35;99733.64;;;11.61;80.41
37304;BME280;23188;51.188;16.374;2023-04-15T19:11:39;99736.89;;;11.40;80.72
37304;BME280;23188;51.188;16.374;2023-04-15T19:15:42;99744.08;;;11.33;81.31
37304;BME280;23188;51.188;16.374;2023-04-15T19:19:45;99753.45;;;11.30;81.08
37304;BME280;23188;51.188;16.374;2023-04-15T19:23:49;99757.83;;;11.26;80.71
37304;BME280;23188;51.188;16.374;2023-04-15T19:27:52;99755.54;;;11.24;80.25
37304;BME280;23188;51.188;16.374;2023-04-15T19:31:55;99761.01;;;11.27;80.63
37304;BME280;23188;51.188;16.374;2023-04-15T19:36:04;99761.40;;;11.34;81.25
37304;BME280;23188;51.188;16.374;2023-04-15T19:40:08;99765.64;;;11.36;81.71
37304;BME280;23188;51.188;16.374;2023-04-15T19:44:11;99771.41;;;11.31;82.96
37304;BME280;23188;51.188;16.374;2023-04-15T19:48:15;99778.80;;;11.18;84.39
37304;BME280;23188;51.188;16.374;2023-04-15T19:52:19;99786.15;;;11.02;84.78
37304;BME280;23188;51.188;16.374;2023-04-15T19:56:22;99793.67;;;10.93;84.81
37304;BME280;23188;51.188;16.374;2023-04-15T20:00:26;99790.48;;;10.97;85.22
37304;BME280;23188;51.188;16.374;2023-04-15T20:04:29;99796.27;;;10.98;85.85
37304;BME280;23188;51.188;16.374;2023-04-15T20:08:33;99799.41;;;10.96;85.92
37304;BME280;23188;51.188;16.374;2023-04-15T20:12:38;99800.95;;;10.91;88.49
37304;BME280;23188;51.188;16.374;2023-04-15T20:16:54;99801.45;;;10.78;90.38
37304;BME280;23188;51.188;16.374;2023-04-15T20:20:58;99809.92;;;10.68;90.68
37304;BME280;23188;51.188;16.374;2023-04-15T20:25:02;99811.86;;;10.61;92.66
37304;BME280;23188;51.188;16.374;2023-04-15T20:29:05;99810.43;;;10.55;93.18
37304;BME280;23188;51.188;16.374;2023-04-15T20:33:09;99810.02;;;10.51;93.91
37304;BME280;23188;51.188;16.374;2023-04-15T20:37:13;99812.35;;;10.47;94.54
37304;BME280;23188;51.188;16.374;2023-04-15T20:41:16;99816.66;;;10.40;95.55
37304;BME280;23188;51.188;16.374;2023-04-15T20:45:19;99830.11;;;10.30;97.05
37304;BME280;23188;51.188;16.374;2023-04-15T20:49:22;99831.34;;;10.22;98.40
37304;BME280;23188;51.188;16.374;2023-04-15T20:53:26;99838.88;;;10.19;96.93
37304;BME280;23188;51.188;16.374;2023-04-15T20:57:29;99843.18;;;10.12;97.70
37304;BME280;23188;51.188;16.374;2023-04-15T21:01:32;99849.10;;;9.99;98.86
37304;BME280;23188;51.188;16.374;2023-04-15T21:05:36;99848.95;;;9.86;100.00
37304;BME280;23188;51.188;16.374;2023-04-15T21:09:39;99850.96;;;9.79;100.00
37304;BME280;23188;51.188;16.374;2023-04-15T21:13:44;99856.21;;;9.74;100.00
37304;BME280;23188;51.188;16.374;2023-04-15T21:17:50;99861.23;;;9.66;100.00
37304;BME280;23188;51.188;16.374;2023-04-15T21:21:53;99864.39;;;9.63;100.00
37304;BME280;23188;51.188;16.374;2023-04-15T21:25:57;99867.39;;;9.67;100.00
37304;BME280;23188;51.188;16.374;2023-04-15T21:30:01;99865.08;;;9.78;100.00
37304;BME280;23188;51.188;16.374;2023-04-15T21:34:04;99868.44;;;9.84;100.00
37304;BME280;23188;51.188;16.374;2023-04-15T21:38:07;99874.48;;;9.94;100.00
37304;BME280;23188;51.188;16.374;2023-04-15T21:42:11;99877.26;;;9.99;100.00
37304;BME280;23188;51.188;16.374;2023-04-15T21:46:14;99881.77;;;10.06;99.95
37304;BME280;23188;51.188;16.374;2023-04-15T21:50:27;99885.52;;;10.10;100.00
37304;BME280;23188;51.188;16.374;2023-04-15T21:54:30;99884.11;;;10.04;100.00
37304;BME280;23188;51.188;16.374;2023-04-15T21:58:35;99881.94;;;10.00;99.76
37304;BME280;23188;51.188;16.374;2023-04-15T22:02:38;99888.45;;;9.99;99.30
37304;BME280;23188;51.188;16.374;2023-04-15T22:06:42;99886.54;;;9.92;98.36
37304;BME280;23188;51.188;16.374;2023-04-15T22:10:45;99896.37;;;9.84;98.93
37304;BME280;23188;51.188;16.374;2023-04-15T22:14:48;99896.21;;;9.76;98.88
37304;BME280;23188;51.188;16.374;2023-04-15T22:18:51;99902.33;;;9.75;99.09
37304;BME280;23188;51.188;16.374;2023-04-15T22:22:55;99905.52;;;9.68;98.04
37304;BME280;23188;51.188;16.374;2023-04-15T22:26:59;99911.09;;;9.59;98.03
37304;BME280;23188;51.188;16.374;2023-04-15T22:31:04;99919.47;;;9.45;99.14
37304;BME280;23188;51.188;16.374;2023-04-15T22:35:08;99923.48;;;9.26;97.70
37304;BME280;23188;51.188;16.374;2023-04-15T22:39:11;99925.25;;;9.09;96.65
37304;BME280;23188;51.188;16.374;2023-04-15T22:43:14;99928.26;;;9.02;96.63
37304;BME280;23188;51.188;16.374;2023-04-15T22:47:19;99932.11;;;8.98;96.45
37304;BME280;23188;51.188;16.374;2023-04-15T22:51:25;99934.17;;;8.94;96.27
37304;BME280;23188;51.188;16.374;2023-04-15T22:55:30;99933.08;;;8.84;96.52
37304;BME280;23188;51.188;16.374;2023-04-15T22:59:33;99936.20;;;8.74;98.21
37304;BME280;23188;51.188;16.374;2023-04-15T23:03:38;99939.17;;;8.63;99.43
37304;BME280;23188;51.188;16.374;2023-04-15T23:07:59;99942.14;;;8.52;99.84
37304;BME280;23188;51.188;16.374;2023-04-15T23:12:02;99949.13;;;8.29;100.00
37304;BME280;23188;51.188;16.374;2023-04-15T23:16:06;99951.42;;;8.06;100.00
37304;BME280;23188;51.188;16.374;2023-04-15T23:20:10;99955.52;;;8.06;100.00
37304;BME280;23188;51.188;16.374;2023-04-15T23:24:14;99959.59;;;8.06;100.00
37304;BME280;23188;51.188;16.374;2023-04-15T23:28:17;99954.09;;;8.11;100.00
37304;BME280;23188;51.188;16.374;2023-04-15T23:32:21;99952.20;;;8.14;98.70
37304;BME280;23188;51.188;16.374;2023-04-15T23:36:24;99954.28;;;8.15;98.28
37304;BME280;23188;51.188;16.374;2023-04-15T23:40:27;99956.73;;;8.11;97.85
37304;BME280;23188;51.188;16.374;2023-04-15T23:44:31;99956.48;;;8.07;98.13
37304;BME280;23188;51.188;16.374;2023-04-15T23:48:34;99960.93;;;8.04;99.34
37304;BME280;23188;51.188;16.374;2023-04-15T23:52:38;99958.76;;;7.98;100.00
37304;BME280;23188;51.188;16.374;2023-04-15T23:56:41;99961.52;;;7.80;100.00
